createdAt,value
2024-01-16T00:01:13.979Z,19.15
2024-01-16T00:03:41.270Z,19.13
2024-01-16T00:06:08.894Z,19.65
2024-01-16T00:08:36.248Z,19.00
2024-01-16T00:11:04.620Z,17.15
2024-01-16T00:13:33.585Z,17.95
2024-01-16T00:16:04.021Z,17.10
2024-01-16T00:18:31.532Z,16.33
2024-01-16T00:20:58.833Z,15.07
2024-01-16T00:23:26.307Z,16.80
2024-01-16T00:25:53.508Z,17.50
2024-01-16T00:28:21.148Z,18.50
2024-01-16T00:30:48.500Z,15.73
2024-01-16T00:33:15.837Z,17.58
2024-01-16T00:35:43.368Z,16.27
2024-01-16T00:38:10.687Z,15.57
2024-01-16T00:40:37.933Z,15.23
2024-01-16T00:43:05.583Z,15.43
2024-01-16T00:45:32.845Z,14.98
2024-01-16T00:48:00.397Z,15.95
2024-01-16T00:50:28.083Z,16.33
2024-01-16T00:52:55.235Z,16.80
2024-01-16T00:55:22.458Z,14.35
2024-01-16T00:57:49.619Z,14.80
2024-01-16T01:00:16.983Z,16.02
2024-01-16T01:02:45.411Z,14.02
2024-01-16T01:05:12.750Z,15.55
2024-01-16T01:07:39.957Z,15.40
2024-01-16T01:10:07.560Z,16.67
2024-01-16T01:12:34.736Z,12.70
2024-01-16T01:15:03.036Z,14.07
2024-01-16T01:17:31.785Z,15.70
2024-01-16T01:19:59.011Z,14.65
2024-01-16T01:22:26.359Z,16.02
2024-01-16T01:24:53.647Z,15.40
2024-01-16T01:27:20.903Z,17.73
2024-01-16T01:29:48.109Z,16.40
2024-01-16T01:32:15.342Z,16.20
2024-01-16T01:34:45.298Z,16.42
2024-01-16T01:37:12.635Z,14.80
2024-01-16T01:39:39.796Z,16.08
2024-01-16T01:42:07.032Z,14.23
2024-01-16T01:44:34.331Z,15.50
2024-01-16T01:47:01.707Z,15.93
2024-01-16T01:49:29.223Z,16.45
2024-01-16T01:51:56.896Z,16.52
2024-01-16T01:54:26.167Z,17.58
2024-01-16T01:56:53.761Z,15.93
2024-01-16T01:59:23.353Z,15.88
2024-01-16T02:01:54.125Z,15.20
2024-01-16T02:04:22.916Z,15.23
2024-01-16T02:06:50.346Z,15.52
2024-01-16T02:09:17.591Z,16.83
2024-01-16T02:11:44.877Z,16.48
2024-01-16T02:14:13.271Z,16.08
2024-01-16T02:16:42.424Z,16.00
2024-01-16T02:19:10.105Z,17.95
2024-01-16T02:21:51.197Z,16.27
2024-01-16T02:24:20.367Z,14.77
2024-01-16T02:26:48.456Z,17.10
2024-01-16T02:29:17.698Z,14.55
2024-01-16T02:31:45.049Z,15.38
2024-01-16T02:34:12.433Z,17.05
2024-01-16T02:36:40.022Z,16.08
2024-01-16T02:39:07.811Z,16.42
2024-01-16T02:41:35.210Z,16.02
2024-01-16T02:44:02.834Z,18.63
2024-01-16T02:46:30.058Z,14.60
2024-01-16T02:48:57.406Z,16.58
2024-01-16T02:51:24.653Z,14.73
2024-01-16T02:53:51.891Z,14.50
2024-01-16T02:56:19.355Z,12.52
2024-01-16T02:58:46.645Z,14.10
2024-01-16T03:01:15.759Z,15.68
2024-01-16T03:03:43.127Z,15.43
2024-01-16T03:06:10.501Z,14.40
2024-01-16T03:08:37.757Z,15.88
2024-01-16T03:11:05.205Z,15.05
2024-01-16T03:13:32.436Z,14.75
2024-01-16T03:15:59.738Z,15.02
2024-01-16T03:18:27.635Z,16.48
2024-01-16T03:20:55.083Z,15.82
2024-01-16T03:23:22.300Z,15.60
2024-01-16T03:25:49.491Z,16.38
2024-01-16T03:28:16.813Z,15.93
2024-01-16T03:30:44.149Z,15.90
2024-01-16T03:33:11.616Z,15.65
2024-01-16T03:35:38.967Z,15.80
2024-01-16T03:38:06.166Z,16.67
2024-01-16T03:40:35.650Z,14.73
2024-01-16T03:43:03.271Z,13.95
2024-01-16T03:45:30.450Z,14.45
2024-01-16T03:47:57.877Z,16.42
2024-01-16T03:50:25.170Z,14.95
2024-01-16T03:52:52.501Z,14.63
2024-01-16T03:55:19.786Z,14.68
2024-01-16T03:57:46.936Z,17.23
2024-01-16T04:00:15.162Z,15.05
2024-01-16T04:02:42.328Z,16.27
2024-01-16T04:05:09.736Z,16.98
2024-01-16T04:07:37.024Z,15.93
2024-01-16T04:10:06.523Z,15.65
2024-01-16T04:12:33.941Z,17.08
2024-01-16T04:15:01.228Z,18.75
2024-01-16T04:17:29.870Z,18.63
2024-01-16T04:19:57.118Z,16.42
2024-01-16T04:22:24.315Z,16.38
2024-01-16T04:24:51.605Z,17.88
2024-01-16T04:27:18.823Z,19.55
2024-01-16T04:29:46.360Z,17.83
2024-01-16T04:32:13.636Z,14.75
2024-01-16T04:34:40.925Z,15.43
2024-01-16T04:37:08.115Z,16.67
2024-01-16T04:39:35.358Z,16.40
2024-01-16T04:42:02.560Z,20.73
2024-01-16T04:44:30.298Z,21.27
2024-01-16T04:46:57.703Z,17.33
2024-01-16T04:49:25.494Z,17.60
2024-01-16T04:51:52.828Z,19.85
2024-01-16T04:54:20.007Z,18.83
2024-01-16T04:56:47.386Z,17.50
2024-01-16T04:59:16.907Z,18.10
2024-01-16T05:01:44.294Z,18.88
2024-01-16T05:04:11.799Z,16.85
2024-01-16T05:06:39.883Z,18.20
2024-01-16T05:09:07.119Z,16.88
2024-01-16T05:11:34.351Z,17.63
2024-01-16T05:14:01.582Z,17.02
2024-01-16T05:16:28.950Z,17.10
2024-01-16T05:18:57.575Z,18.98
2024-01-16T05:21:24.844Z,17.80
2024-01-16T05:23:52.308Z,16.70
2024-01-16T05:26:19.712Z,17.70
2024-01-16T05:28:46.915Z,16.08
2024-01-16T05:31:14.100Z,15.23
2024-01-16T05:33:41.362Z,18.70
2024-01-16T05:36:09.689Z,18.00
2024-01-16T05:38:38.979Z,18.38
2024-01-16T05:41:06.462Z,20.02
2024-01-16T05:43:33.680Z,19.33
2024-01-16T05:46:02.056Z,20.55
2024-01-16T05:48:29.436Z,19.92
2024-01-16T05:50:56.841Z,17.27
2024-01-16T05:53:24.110Z,17.58
2024-01-16T05:55:51.394Z,19.15
2024-01-16T05:58:18.608Z,19.85
2024-01-16T06:00:45.940Z,22.60
2024-01-16T06:03:13.130Z,19.88
2024-01-16T06:05:40.473Z,21.48
2024-01-16T06:08:07.865Z,21.20
2024-01-16T06:10:35.099Z,20.42
2024-01-16T06:13:02.406Z,20.58
2024-01-16T06:15:29.675Z,21.73
2024-01-16T06:17:56.898Z,20.45
2024-01-16T06:20:26.045Z,20.00
2024-01-16T06:22:53.365Z,17.98
2024-01-16T06:25:20.604Z,19.67
2024-01-16T06:27:47.770Z,18.02
2024-01-16T06:30:15.327Z,22.42
2024-01-16T06:32:42.814Z,22.17
2024-01-16T06:35:10.203Z,21.13
2024-01-16T06:37:38.156Z,21.45
2024-01-16T06:40:07.063Z,19.55
2024-01-16T06:42:34.810Z,19.13
2024-01-16T06:45:02.354Z,18.90
2024-01-16T06:47:30.818Z,19.92
2024-01-16T06:49:58.085Z,20.30
2024-01-16T06:52:25.884Z,22.55
2024-01-16T06:54:53.063Z,23.27
2024-01-16T06:57:20.213Z,21.50
2024-01-16T06:59:47.860Z,25.67
2024-01-16T07:02:15.119Z,22.65
2024-01-16T07:04:42.420Z,21.20
2024-01-16T07:07:09.641Z,22.80
2024-01-16T07:09:36.850Z,21.23
2024-01-16T07:12:05.418Z,22.40
2024-01-16T07:14:34.107Z,20.75
2024-01-16T07:17:01.380Z,23.85
2024-01-16T07:19:28.615Z,24.15
2024-01-16T07:21:56.219Z,21.38
2024-01-16T07:24:24.642Z,20.02
2024-01-16T07:26:52.027Z,21.30
2024-01-16T07:29:20.058Z,21.38
2024-01-16T07:31:47.796Z,24.33
2024-01-16T07:34:21.283Z,22.25
2024-01-16T07:36:48.981Z,20.45
2024-01-16T07:39:16.325Z,22.42
2024-01-16T07:41:43.749Z,21.15
2024-01-16T07:44:11.052Z,22.23
2024-01-16T07:46:39.008Z,20.65
2024-01-16T07:49:07.196Z,24.23
2024-01-16T07:51:34.518Z,19.70
2024-01-16T07:54:10.311Z,18.63
2024-01-16T07:56:39.255Z,20.73
2024-01-16T07:59:06.728Z,22.77
2024-01-16T08:01:34.058Z,22.33
2024-01-16T08:04:01.565Z,20.38
2024-01-16T08:06:29.296Z,19.35
2024-01-16T08:08:57.130Z,18.85
2024-01-16T08:11:25.061Z,19.05
2024-01-16T08:13:52.421Z,18.63
2024-01-16T08:16:19.719Z,20.80
2024-01-16T08:18:47.154Z,15.77
2024-01-16T08:21:14.529Z,19.20
2024-01-16T08:23:41.880Z,17.42
2024-01-16T08:26:09.290Z,15.38
2024-01-16T08:28:37.115Z,15.82
2024-01-16T08:31:05.433Z,15.07
2024-01-16T08:33:37.543Z,15.93
2024-01-16T08:36:10.837Z,16.33
2024-01-16T08:38:38.199Z,16.63
2024-01-16T08:41:07.809Z,15.95
2024-01-16T08:43:35.367Z,15.80
2024-01-16T08:46:03.350Z,15.85
2024-01-16T08:48:31.033Z,18.05
2024-01-16T08:50:58.615Z,19.20
2024-01-16T08:53:26.032Z,18.27
2024-01-16T08:55:53.382Z,14.15
2024-01-16T08:58:20.927Z,16.27
2024-01-16T09:00:48.710Z,15.82
2024-01-16T09:03:16.241Z,17.63
2024-01-16T09:05:45.089Z,19.52
2024-01-16T09:08:14.058Z,16.52
2024-01-16T09:10:41.808Z,15.18
2024-01-16T09:13:10.448Z,17.55
2024-01-16T09:15:38.017Z,18.45
2024-01-16T09:18:06.733Z,17.27
2024-01-16T09:20:34.800Z,16.08
2024-01-16T09:23:02.539Z,17.08
2024-01-16T09:25:31.209Z,15.82
2024-01-16T09:27:59.068Z,17.33
2024-01-16T09:30:26.723Z,17.52
2024-01-16T09:32:54.219Z,16.08
2024-01-16T09:35:21.682Z,16.13
2024-01-16T09:37:49.595Z,17.48
2024-01-16T09:40:17.639Z,16.85
2024-01-16T09:42:47.041Z,17.00
2024-01-16T09:45:21.812Z,18.17
2024-01-16T09:47:52.268Z,18.73
2024-01-16T09:50:20.968Z,17.40
2024-01-16T09:52:48.848Z,16.90
2024-01-16T09:55:17.022Z,15.00
2024-01-16T09:57:47.666Z,16.58
2024-01-16T10:00:16.882Z,17.42
2024-01-16T10:02:44.350Z,16.40
2024-01-16T10:05:13.338Z,24.38
2024-01-16T10:07:42.531Z,16.42
2024-01-16T10:10:12.303Z,14.40
2024-01-16T10:12:40.962Z,18.70
2024-01-16T10:15:09.352Z,13.85
2024-01-16T10:17:38.678Z,17.35
2024-01-16T10:20:07.728Z,15.77
2024-01-16T10:22:35.240Z,14.95
2024-01-16T10:25:07.630Z,15.85
2024-01-16T10:27:35.782Z,14.43
2024-01-16T10:30:04.618Z,14.93
2024-01-16T10:32:39.366Z,15.35
2024-01-16T10:35:14.910Z,15.30
2024-01-16T10:37:43.608Z,14.52
2024-01-16T10:40:11.257Z,18.23
2024-01-16T10:42:39.728Z,16.17
2024-01-16T10:45:07.960Z,15.60
2024-01-16T10:47:38.789Z,17.77
2024-01-16T10:50:08.571Z,17.00
2024-01-16T10:52:42.731Z,16.60
2024-01-16T10:55:24.243Z,14.90
2024-01-16T10:57:52.924Z,16.20
2024-01-16T11:00:24.130Z,16.05
2024-01-16T11:03:07.024Z,15.68
2024-01-16T11:05:37.277Z,18.25
2024-01-16T11:08:06.639Z,18.42
2024-01-16T11:10:37.511Z,18.88
2024-01-16T11:13:06.469Z,15.85
2024-01-16T11:15:34.152Z,17.83
2024-01-16T11:18:03.095Z,17.08
2024-01-16T11:20:55.129Z,17.48
2024-01-16T11:23:19.519Z,18.40
2024-01-16T11:25:47.240Z,17.42
2024-01-16T11:28:15.775Z,17.92
2024-01-16T11:31:02.708Z,18.95
2024-01-16T11:33:32.933Z,16.67
2024-01-16T11:36:01.487Z,17.02
2024-01-16T11:38:31.196Z,17.45
2024-01-16T11:40:58.647Z,20.48
2024-01-16T11:43:35.465Z,19.77
2024-01-16T11:46:04.027Z,22.27
2024-01-16T11:48:31.427Z,20.83
2024-01-16T11:50:58.877Z,20.77
2024-01-16T11:53:32.600Z,21.85
2024-01-16T11:56:31.163Z,21.13
2024-01-16T11:59:08.775Z,19.20
2024-01-16T12:01:36.969Z,19.48
2024-01-16T12:04:08.386Z,21.48
2024-01-16T12:06:37.518Z,18.98
2024-01-16T12:09:21.508Z,20.15
2024-01-16T12:12:02.791Z,21.50
2024-01-16T12:14:31.232Z,21.27
2024-01-16T12:17:15.451Z,21.85
2024-01-16T12:19:44.605Z,22.45
2024-01-16T12:22:15.455Z,21.83
2024-01-16T12:24:43.084Z,20.63
2024-01-16T12:27:11.057Z,19.13
2024-01-16T12:29:38.424Z,20.27
2024-01-16T12:32:11.140Z,19.35
2024-01-16T12:34:50.087Z,20.02
2024-01-16T12:37:18.507Z,21.52
2024-01-16T12:39:46.152Z,18.60
2024-01-16T12:42:14.351Z,20.17
2024-01-16T12:44:42.046Z,19.17
2024-01-16T12:47:10.072Z,22.02
2024-01-16T12:49:44.648Z,18.35
2024-01-16T12:52:27.613Z,22.05
2024-01-16T12:55:09.645Z,19.55
2024-01-16T12:57:38.541Z,17.67
2024-01-16T13:00:27.273Z,20.25
2024-01-16T13:02:56.883Z,16.60
2024-01-16T13:05:24.511Z,19.40
2024-01-16T13:08:04.685Z,18.33
2024-01-16T13:10:33.179Z,17.58
2024-01-16T13:13:20.031Z,16.88
2024-01-16T13:15:47.804Z,18.40
2024-01-16T13:18:33.835Z,18.55
2024-01-16T13:21:02.321Z,17.75
2024-01-16T13:23:30.089Z,17.83
2024-01-16T13:25:58.363Z,18.48
2024-01-16T13:28:26.691Z,18.75
2024-01-16T13:30:54.575Z,18.00
2024-01-16T13:33:29.486Z,18.25
2024-01-16T13:35:56.969Z,16.90
2024-01-16T13:38:25.462Z,17.25
2024-01-16T13:40:52.947Z,22.25
2024-01-16T13:43:22.645Z,20.20
2024-01-16T13:45:51.118Z,17.70
2024-01-16T13:48:19.316Z,20.45
2024-01-16T13:50:47.200Z,22.08
2024-01-16T13:53:14.727Z,19.77
2024-01-16T13:55:42.710Z,19.85
2024-01-16T13:58:10.387Z,19.88
2024-01-16T14:00:37.721Z,22.70
2024-01-16T14:03:07.041Z,21.08
2024-01-16T14:05:34.568Z,17.08
2024-01-16T14:08:01.953Z,18.05
2024-01-16T14:10:29.279Z,19.17
2024-01-16T14:12:56.869Z,18.00
2024-01-16T14:15:25.435Z,21.10
2024-01-16T14:17:55.740Z,18.55
2024-01-16T14:20:27.767Z,17.70
2024-01-16T14:22:56.493Z,16.80
2024-01-16T14:25:24.782Z,17.60
2024-01-16T14:28:05.523Z,16.90
2024-01-16T14:30:34.733Z,17.65
2024-01-16T14:33:03.016Z,22.15
2024-01-16T14:35:30.591Z,16.13
2024-01-16T14:37:58.608Z,16.00
2024-01-16T14:40:29.252Z,16.35
2024-01-16T14:43:00.621Z,17.00
2024-01-16T14:45:29.142Z,18.13
2024-01-16T14:47:56.748Z,17.15
2024-01-16T14:50:25.791Z,16.85
2024-01-16T14:52:53.866Z,16.35
2024-01-16T14:55:21.842Z,15.57
2024-01-16T14:57:54.497Z,17.15
2024-01-16T15:00:24.383Z,16.40
2024-01-16T15:02:52.248Z,18.45
2024-01-16T15:05:21.068Z,16.80
2024-01-16T15:07:49.938Z,16.92
2024-01-16T15:10:18.038Z,20.70
2024-01-16T15:12:48.351Z,18.42
2024-01-16T15:15:17.014Z,20.30
2024-01-16T15:17:46.025Z,19.23
2024-01-16T15:20:13.885Z,20.20
2024-01-16T15:22:47.258Z,18.23
2024-01-16T15:25:17.086Z,21.25
2024-01-16T15:27:46.831Z,23.05
2024-01-16T15:30:16.800Z,19.13
2024-01-16T15:32:44.455Z,21.15
2024-01-16T15:35:12.724Z,20.92
2024-01-16T15:37:40.557Z,19.15
2024-01-16T15:40:08.612Z,19.90
2024-01-16T15:42:40.538Z,22.45
2024-01-16T15:45:09.292Z,22.55
2024-01-16T15:47:37.873Z,22.70
2024-01-16T15:50:06.739Z,18.75
2024-01-16T15:52:34.407Z,19.52
2024-01-16T15:55:02.684Z,21.45
2024-01-16T15:57:31.537Z,18.63
2024-01-16T15:59:58.908Z,20.70
2024-01-16T16:02:26.263Z,20.15
2024-01-16T16:04:55.320Z,20.70
2024-01-16T16:07:25.006Z,21.58
2024-01-16T16:09:53.751Z,20.40
2024-01-16T16:12:21.324Z,17.63
2024-01-16T16:14:48.827Z,19.17
2024-01-16T16:17:16.309Z,22.70
2024-01-16T16:19:43.891Z,19.48
2024-01-16T16:22:11.393Z,19.33
2024-01-16T16:24:39.153Z,19.02
2024-01-16T16:27:26.950Z,21.52
2024-01-16T16:29:57.788Z,20.73
2024-01-16T16:32:26.003Z,18.55
2024-01-16T16:34:54.726Z,19.17
2024-01-16T16:37:22.778Z,18.90
2024-01-16T16:39:50.349Z,20.92
2024-01-16T16:42:20.011Z,19.27
2024-01-16T16:44:48.273Z,18.10
2024-01-16T16:47:17.070Z,18.50
2024-01-16T16:49:44.834Z,20.85
2024-01-16T16:52:12.330Z,19.40
2024-01-16T16:54:39.800Z,20.13
2024-01-16T16:57:07.300Z,18.17
2024-01-16T16:59:34.805Z,18.45
2024-01-16T17:02:02.205Z,18.63
2024-01-16T17:04:29.720Z,19.08
2024-01-16T17:06:58.167Z,23.45
2024-01-16T17:09:26.179Z,21.30
2024-01-16T17:11:53.602Z,18.13
2024-01-16T17:14:20.913Z,20.20
2024-01-16T17:16:48.693Z,21.30
2024-01-16T17:19:16.380Z,19.75
2024-01-16T17:21:44.467Z,22.00
2024-01-16T17:24:11.971Z,20.15
2024-01-16T17:26:40.880Z,21.10
2024-01-16T17:29:08.485Z,20.20
2024-01-16T17:31:38.218Z,20.80
2024-01-16T17:34:06.954Z,19.98
2024-01-16T17:36:34.520Z,20.55
2024-01-16T17:39:02.266Z,22.17
2024-01-16T17:41:31.166Z,18.20
2024-01-16T17:43:59.425Z,21.73
2024-01-16T17:46:26.798Z,21.92
2024-01-16T17:48:55.808Z,19.65
2024-01-16T17:51:25.529Z,22.40
2024-01-16T17:53:54.649Z,20.77
2024-01-16T17:56:25.163Z,17.55
2024-01-16T17:58:53.715Z,18.20
2024-01-16T18:01:21.439Z,18.70
2024-01-16T18:03:49.250Z,16.98
2024-01-16T18:06:23.484Z,18.20
2024-01-16T18:08:51.276Z,20.30
2024-01-16T18:11:18.764Z,19.00
2024-01-16T18:13:46.652Z,21.38
2024-01-16T18:16:15.220Z,24.20
2024-01-16T18:18:43.010Z,21.75
2024-01-16T18:21:13.905Z,21.05
2024-01-16T18:23:44.491Z,24.98
2024-01-16T18:26:13.632Z,19.58
2024-01-16T18:28:41.567Z,19.98
2024-01-16T18:31:10.561Z,21.83
2024-01-16T18:33:40.269Z,22.13
2024-01-16T18:36:08.156Z,19.77
2024-01-16T18:38:35.680Z,20.95
2024-01-16T18:41:05.467Z,20.23
2024-01-16T18:43:33.399Z,22.65
2024-01-16T18:46:00.735Z,21.13
2024-01-16T18:48:30.482Z,20.73
2024-01-16T18:50:58.129Z,20.95
2024-01-16T18:53:26.591Z,21.92
2024-01-16T18:55:54.127Z,20.30
2024-01-16T18:58:24.621Z,22.13
2024-01-16T19:00:57.831Z,22.60
2024-01-16T19:03:25.525Z,21.02
2024-01-16T19:05:57.900Z,21.02
2024-01-16T19:08:25.710Z,21.45
2024-01-16T19:10:55.156Z,21.45
2024-01-16T19:13:25.627Z,21.77
2024-01-16T19:15:53.751Z,22.25
2024-01-16T19:18:21.854Z,19.63
2024-01-16T19:20:49.676Z,22.75
2024-01-16T19:23:17.985Z,24.52
2024-01-16T19:25:47.205Z,21.30
2024-01-16T19:28:14.673Z,21.27
2024-01-16T19:30:42.148Z,21.65
2024-01-16T19:33:09.790Z,17.92
2024-01-16T19:35:38.114Z,20.35
2024-01-16T19:38:05.870Z,23.50
2024-01-16T19:40:33.721Z,20.52
2024-01-16T19:43:06.512Z,21.75
2024-01-16T19:45:34.309Z,18.20
2024-01-16T19:48:04.575Z,19.37
2024-01-16T19:50:33.536Z,19.20
2024-01-16T19:53:04.065Z,20.02
2024-01-16T19:55:32.069Z,20.63
2024-01-16T19:58:01.428Z,19.98
2024-01-16T20:00:29.197Z,18.33
2024-01-16T20:02:57.170Z,19.80
2024-01-16T20:05:24.685Z,18.17
2024-01-16T20:07:52.272Z,17.10
2024-01-16T20:10:19.652Z,19.60
2024-01-16T20:12:49.897Z,18.00
2024-01-16T20:15:23.036Z,19.95
2024-01-16T20:17:51.927Z,15.80
2024-01-16T20:20:20.191Z,18.83
2024-01-16T20:22:48.435Z,19.83
2024-01-16T20:25:16.101Z,19.13
2024-01-16T20:27:44.456Z,17.80
2024-01-16T20:30:14.222Z,15.48
2024-01-16T20:32:44.705Z,17.17
2024-01-16T20:35:14.344Z,18.23
2024-01-16T20:37:42.625Z,18.33
2024-01-16T20:40:10.950Z,19.38
2024-01-16T20:42:38.589Z,20.35
2024-01-16T20:45:10.712Z,20.13
2024-01-16T20:47:42.242Z,18.27
2024-01-16T20:50:11.231Z,24.77
2024-01-16T20:52:39.086Z,19.85
2024-01-16T20:55:08.587Z,17.40
2024-01-16T20:57:36.803Z,18.70
2024-01-16T21:00:14.187Z,16.20
2024-01-16T21:02:42.515Z,17.25
2024-01-16T21:05:09.966Z,15.82
2024-01-16T21:07:37.546Z,16.40
2024-01-16T21:10:05.573Z,16.23
2024-01-16T21:12:33.399Z,13.23
2024-01-16T21:15:01.040Z,14.00
2024-01-16T21:17:29.630Z,15.77
2024-01-16T21:19:56.997Z,15.57
2024-01-16T21:22:30.835Z,13.85
2024-01-16T21:25:03.499Z,13.32
2024-01-16T21:27:30.747Z,17.10
2024-01-16T21:29:58.161Z,14.55
2024-01-16T21:32:25.960Z,13.48
2024-01-16T21:34:53.365Z,13.90
2024-01-16T21:37:20.622Z,13.68
2024-01-16T21:39:47.867Z,11.30
2024-01-16T21:42:15.334Z,11.35
2024-01-16T21:44:42.635Z,16.70
2024-01-16T21:47:10.374Z,13.20
2024-01-16T21:49:37.666Z,12.98
2024-01-16T21:52:05.147Z,14.85
2024-01-16T21:54:33.926Z,12.32
2024-01-16T21:57:01.305Z,10.90
2024-01-16T21:59:28.607Z,12.60
2024-01-16T22:01:55.863Z,15.52
2024-01-16T22:04:23.092Z,11.57
2024-01-16T22:06:50.391Z,11.38
2024-01-16T22:09:22.280Z,11.10
2024-01-16T22:11:50.084Z,11.35
2024-01-16T22:14:17.421Z,11.33
2024-01-16T22:16:44.655Z,10.75
2024-01-16T22:19:11.891Z,10.43
2024-01-16T22:21:39.143Z,9.40
2024-01-16T22:24:06.701Z,10.63
2024-01-16T22:26:34.246Z,8.30
2024-01-16T22:29:01.609Z,10.97
2024-01-16T22:31:28.881Z,8.67
2024-01-16T22:33:56.284Z,8.17
2024-01-16T22:36:23.859Z,10.03
2024-01-16T22:38:51.145Z,8.47
2024-01-16T22:41:18.347Z,9.27
2024-01-16T22:43:46.479Z,9.07
2024-01-16T22:46:13.681Z,9.27
2024-01-16T22:48:41.639Z,9.20
2024-01-16T22:51:15.370Z,8.30
2024-01-16T22:53:44.004Z,11.37
2024-01-16T22:56:11.252Z,8.43
2024-01-16T22:58:43.305Z,10.17
2024-01-16T23:01:10.547Z,9.80
2024-01-16T23:03:37.993Z,8.53
2024-01-16T23:08:34.242Z,8.73
2024-01-16T23:11:01.552Z,9.27
2024-01-16T23:13:28.970Z,8.83
2024-01-16T23:15:56.166Z,9.00
2024-01-16T23:18:23.531Z,10.57
2024-01-16T23:20:50.844Z,10.03
2024-01-16T23:23:19.097Z,9.00
2024-01-16T23:25:46.980Z,8.80
2024-01-16T23:28:14.385Z,9.67
2024-01-16T23:30:41.680Z,9.63
2024-01-16T23:33:09.424Z,9.10
2024-01-16T23:35:36.825Z,9.20
2024-01-16T23:38:07.197Z,10.40
2024-01-16T23:40:34.448Z,8.27
2024-01-16T23:43:01.883Z,8.70
2024-01-16T23:45:33.711Z,9.63
2024-01-16T23:48:01.859Z,9.50
2024-01-16T23:50:30.339Z,8.07
2024-01-16T23:52:58.708Z,10.20
2024-01-16T23:55:26.225Z,9.67
2024-01-16T23:57:53.487Z,9.57
